Latest Weather Observations for Moorabbin Airport

IDV60901

Issued at 12:21 am EST Thursday 3 September 2026 (issued every 10 minutes, with the page automatically refreshed every 10 minutes)

About weather observations | Map of Melbourne area stations | Latest observations for Melbourne area | Other Formats
Station Details ID: 086077 Name: MOORABBIN AIRPORT Lat: -37.98 Lon: 145.10 Height: 12.1 m
Data from the previous 72 hours. | See also: Recent months at Moorabbin Airport
Date/Time
EST
Temp
°C
App
Temp
°C
Dew
Point
°C
Rel
Hum
%
Delta-T
°C
Wind Press
QNH
hPa
Press
MSL
hPa
Rain since
9am
mm
Dir  Spd
km/h
Gust
km/h
Spd
kts
Gust
kts
03/12:00am 10.4 7.1 4.8 68 2.5 N 11 13 6 7 1010.7 1010.7 0.2
 
Date/Time
EST
Temp
°C
App
Temp
°C
Dew
Point
°C
Rel
Hum
%
Delta-T
°C
Wind Press
QNH
hPa
Press
MSL
hPa
Rain since
9am
mm
Dir  Spd
km/h
Gust
km/h
Spd
kts
Gust
kts
02/11:30pm 11.2 7.8 4.2 62 3.1 N 11 15 6 8 1010.8 1010.8 0.2
02/11:00pm 12.1 7.5 3.9 57 3.7 NNW 17 24 9 13 1011.2 1011.2 0.2
02/10:30pm 12.1 8.3 4.1 58 3.6 NW 13 20 7 11 1011.5 1011.5 0.2
02/10:00pm 13.1 8.6 4.3 55 4.0 NW 17 22 9 12 1011.9 1011.9 0.2
02/09:30pm 14.0 9.7 5.4 56 4.0 NW 17 28 9 15 1011.9 1011.9 0.2
02/09:00pm 13.2 11.4 7.0 66 3.0 WNW 6 7 3 4 1012.0 1012.0 0.2
02/08:30pm 13.5 11.4 6.6 63 3.3 NW 7 9 4 5 1012.0 1012.0 0.2
02/08:00pm 13.2 11.3 6.5 64 3.2 WNW 6 9 3 5 1011.9 1011.9 0.2
02/07:30pm 12.7 10.8 6.5 66 3.0 NNW 6 7 3 4 1011.6 1011.6 0.2
02/07:00pm 12.5 10.5 7.0 69 2.6 N 7 7 4 4 1011.3 1011.3 0.2
02/06:30pm 12.6 11.7 6.0 64 3.1 CALM 0 6 0 3 1011.4 1011.4 0.2
02/06:00pm 13.0 12.0 5.4 60 3.5 CALM 0 4 0 2 1011.3 1011.3 0.2
02/05:30pm 13.8 11.1 5.7 58 3.8 SW 9 13 5 7 1011.3 1011.3 0.2
02/05:00pm 14.4 11.5 6.3 58 3.9 SW 11 15 6 8 1011.3 1011.3 0.2
02/04:30pm 14.4 10.7 6.5 59 3.8 SW 15 22 8 12 1011.6 1011.6 0.2
02/04:00pm 14.7 10.2 6.0 56 4.2 WSW 19 24 10 13 1012.0 1012.0 0.2
02/03:30pm 14.5 10.4 6.1 57 4.0 SW 17 24 9 13 1012.3 1012.3 0.2
02/03:00pm 14.7 10.7 6.5 58 4.0 SW 17 24 9 13 1012.5 1012.5 0.2
02/02:30pm 14.6 10.5 6.2 57 4.0 WSW 17 24 9 13 1012.6 1012.6 0.2
02/02:00pm 14.2 10.0 5.8 57 4.0 WSW 17 24 9 13 1012.8 1012.8 0.2
02/01:30pm 14.1 9.4 6.0 58 3.9 SW 20 30 11 16 1013.0 1013.0 0.2
02/01:00pm 14.2 9.8 6.6 60 3.7 WSW 19 24 10 13 1013.6 1013.6 0.2
02/12:30pm 13.5 8.9 5.7 59 3.7 WSW 19 26 10 14 1014.4 1014.4 0.0
02/12:00pm 13.6 9.5 6.0 60 3.6 WSW 17 26 9 14 1014.8 1014.8 0.0
02/11:30am 13.4 9.5 5.3 58 3.8 WSW 15 20 8 11 1015.0 1015.0 0.0
02/11:00am 13.3 9.1 5.9 61 3.5 W 17 26 9 14 1015.2 1015.2 0.0
02/10:30am 13.0 8.3 6.1 63 3.3 W 20 28 11 15 1015.5 1015.5 0.0
02/10:00am 13.4 9.5 7.2 66 3.0 W 17 24 9 13 1015.7 1015.7 0.0
02/09:30am 12.4 8.0 6.5 67 2.8 W 19 28 10 15 1015.8 1015.8 0.0
02/09:00am 12.4 8.4 6.7 68 2.7 W 17 24 9 13 1015.7 1015.7 0.2
02/08:30am 12.1 7.8 7.0 71 2.4 W 19 28 10 15 1015.5 1015.5 0.2
02/08:00am 12.1 7.9 7.4 73 2.3 W 19 26 10 14 1015.1 1015.1 0.2
02/07:30am 12.2 8.1 7.9 75 2.1 W 19 26 10 14 1014.8 1014.8 0.2
02/07:00am 12.1 7.5 8.2 77 1.9 W 22 33 12 18 1014.6 1014.6 0.2
02/06:30am 12.2 8.7 8.9 80 1.6 W 17 26 9 14 1014.1 1014.1 0.2
02/06:00am 12.3 9.2 9.0 80 1.7 W 15 22 8 12 1013.8 1013.8 0.2
02/05:30am 12.8 9.8 9.4 80 1.7 W 15 22 8 12 1013.7 1013.7 0.2
02/05:00am 12.9 10.4 9.7 81 1.6 W 13 20 7 11 1013.5 1013.5 0.2
02/04:30am 13.2 10.6 10.7 85 1.3 WSW 15 24 8 13 1013.0 1013.0 0.2
02/04:00am 13.5 10.7 11.4 87 1.1 SW 17 28 9 15 1012.7 1012.7 0.2
02/03:30am 16.0 13.3 10.5 70 2.9 NW 15 20 8 11 1011.9 1011.9 0.2
02/03:00am 16.0 12.9 10.3 69 3.0 NW 17 22 9 12 1011.9 1011.9 0.2
02/02:30am 16.2 13.1 10.3 68 3.1 NW 17 22 9 12 1012.2 1012.2 0.2
02/02:00am 16.2 13.1 10.3 68 3.1 NW 17 20 9 11 1012.3 1012.3 0.2
02/01:30am 16.3 14.0 10.4 68 3.1 NW 13 19 7 10 1012.3 1012.3 0.2
02/01:00am 16.2 13.9 10.3 68 3.1 NW 13 20 7 11 1012.3 1012.3 0.2
02/12:30am 16.4 12.9 10.3 67 3.2 NW 19 28 10 15 1012.3 1012.3 0.2
02/12:00am 16.3 12.9 10.4 68 3.1 NW 19 30 10 16 1012.4 1012.4 0.2
 
Date/Time
EST
Temp
°C
App
Temp
°C
Dew
Point
°C
Rel
Hum
%
Delta-T
°C
Wind Press
QNH
hPa
Press
MSL
hPa
Rain since
9am
mm
Dir  Spd
km/h
Gust
km/h
Spd
kts
Gust
kts
01/11:30pm 17.6 13.3 9.5 59 4.2 NW 22 33 12 18 1012.4 1012.4 0.2
01/11:00pm 17.7 13.0 9.3 58 4.4 NW 24 35 13 19 1012.7 1012.7 0.2
01/10:30pm 17.9 12.5 9.5 58 4.4 NNW 28 41 15 22 1012.4 1012.4 0.2
01/10:10pm 17.9 12.3 10.0 60 4.2 NNW 30 59 16 32 1012.3 1012.3 0.2
01/10:00pm 17.7 11.9 9.6 59 4.3 NNW 30 44 16 24 1012.2 1012.2 0.0
01/09:30pm 18.4 13.7 9.2 55 4.8 NNW 24 35 13 19 1012.1 1012.1 0.0
01/09:00pm 18.0 13.4 9.6 58 4.4 NNW 24 33 13 18 1012.1 1012.1 0.0
01/08:55pm 18.0 13.8 9.6 58 4.4 NNW 22 33 12 18 1012.0 1012.0 0.0
01/08:35pm 18.3 12.1 9.4 56 4.7 NNW 32 50 17 27 1011.9 1011.9 0.0
01/08:30pm 18.3 12.4 9.1 55 4.8 NNW 30 46 16 25 1011.9 1011.9 0.0
01/08:00pm 19.0 14.5 8.4 50 5.5 NNW 22 32 12 17 1011.9 1011.9 0.0
01/07:30pm 19.0 13.3 8.4 50 5.5 NNW 28 41 15 22 1012.1 1012.1 0.0
01/07:00pm 19.5 13.6 7.6 46 6.1 N 28 37 15 20 1012.2 1012.2 0.0
01/06:30pm 19.6 14.4 7.4 45 6.2 N 24 33 13 18 1012.7 1012.7 0.0
01/06:00pm 19.9 13.9 7.0 43 6.5 NNW 28 37 15 20 1013.1 1013.1 0.0
01/05:30pm 20.3 14.6 6.6 41 6.9 NNW 26 37 14 20 1013.4 1013.4 0.0
01/05:25pm 20.4 14.3 6.7 41 6.9 NNW 28 44 15 24 1013.3 1013.3 0.0
01/05:12pm 20.5 14.4 6.5 40 7.1 NNW 28 46 15 25 1013.0 1013.0 0.0
01/05:00pm 20.5 14.4 6.8 41 6.9 NNW 28 43 15 23 1013.1 1013.1 0.0
01/04:30pm 20.5 14.2 7.2 42 6.8 NNW 30 46 16 25 1013.2 1013.2 0.0
01/04:23pm 20.5 13.8 7.2 42 6.8 NNW 32 46 17 25 1013.2 1013.2 0.0
01/04:00pm 20.6 13.8 6.9 41 7.0 NNW 32 50 17 27 1013.0 1013.0 0.0
01/03:58pm 20.6 13.8 6.9 41 7.0 NNW 32 50 17 27 1013.0 1013.0 0.0
01/03:39pm 20.6 13.8 6.9 41 7.0 NNW 32 46 17 25 1012.8 1012.8 0.0
01/03:30pm 20.7 13.7 7.0 41 7.0 NNW 33 46 18 25 1012.7 1012.7 0.0
01/03:13pm 20.9 12.5 7.2 41 7.0 NNW 41 59 22 32 1012.7 1012.7 0.0
01/03:00pm 20.8 12.8 7.4 42 6.9 NNW 39 56 21 30 1012.6 1012.6 0.0
01/02:30pm 21.3 13.6 7.2 40 7.2 NNW 37 59 20 32 1013.3 1013.3 0.0
01/02:18pm 21.3 13.4 6.4 38 7.5 NNW 37 57 20 31 1013.5 1013.5 0.0
01/02:00pm 21.2 12.6 6.3 38 7.5 NNW 41 52 22 28 1013.8 1013.8 0.0
01/01:46pm 21.2 13.6 5.9 37 7.7 NNW 35 54 19 29 1014.2 1014.2 0.0
01/01:45pm 21.4 13.9 6.1 37 7.7 NNW 35 50 19 27 1014.3 1014.3 0.0
01/01:30pm 21.5 13.7 6.6 38 7.6 NW 37 56 20 30 1014.7 1014.7 0.0
01/01:26pm 21.5 13.5 5.8 36 7.9 NNW 37 56 20 30 1014.7 1014.7 0.0
01/01:09pm 21.3 12.8 6.8 39 7.4 NNW 41 56 22 30 1015.0 1015.0 0.0
01/01:00pm 21.2 12.7 7.1 40 7.2 NNW 41 57 22 31 1015.2 1015.2 0.0
01/12:46pm 21.0 13.8 7.6 42 6.9 N 35 54 19 29 1015.6 1015.6 0.0
01/12:38pm 21.1 13.7 8.4 44 6.7 N 37 54 20 29 1015.8 1015.8 0.0
01/12:30pm 20.5 12.3 8.2 45 6.4 N 41 57 22 31 1016.0 1016.0 0.0
01/12:21pm 20.3 12.4 7.7 44 6.5 NNW 39 57 21 31 1016.1 1016.1 0.0
01/12:00pm 20.3 12.1 8.0 45 6.4 N 41 56 22 30 1016.5 1016.5 0.0
01/11:55am 20.0 11.3 7.7 45 6.3 N 43 56 23 30 1016.5 1016.5 0.0
01/11:30am 19.8 10.9 7.5 45 6.3 N 44 61 24 33 1016.4 1016.4 0.0
01/11:07am 19.7 11.5 8.1 47 6.0 N 41 61 22 33 1016.9 1016.9 0.0
01/11:02am 19.2 9.8 7.3 46 6.0 N 46 59 25 32 1016.9 1016.9 0.0
01/11:00am 19.1 9.8 7.5 47 5.9 N 46 59 25 32 1016.9 1016.9 0.0
01/10:52am 19.1 10.4 7.8 48 5.8 N 43 61 23 33 1017.0 1017.0 0.0
01/10:45am 18.8 9.5 7.6 48 5.7 N 46 61 25 33 1017.2 1017.2 0.0
01/10:30am 18.7 9.9 8.1 50 5.4 N 44 69 24 37 1017.8 1017.8 0.0
01/10:11am 18.4 10.6 8.1 51 5.3 N 39 57 21 31 1018.1 1018.1 0.0
01/10:09am 18.7 11.1 9.2 54 5.0 N 39 56 21 30 1018.3 1018.3 0.0
01/10:00am 18.1 9.9 8.4 53 5.0 N 41 57 22 31 1018.2 1018.2 0.0
01/09:39am 17.4 9.1 9.3 59 4.2 N 43 63 23 34 1018.4 1018.4 0.0
01/09:34am 17.3 8.8 9.2 59 4.2 N 44 56 24 30 1018.6 1018.6 0.0
01/09:30am 17.1 8.6 9.3 60 4.1 N 44 56 24 30 1018.7 1018.7 0.0
01/09:20am 16.7 9.9 9.4 62 3.8 N 35 57 19 31 1019.1 1019.1 0.0
01/09:00am 16.1 9.0 9.5 65 3.4 N 37 52 20 28 1019.7 1019.7 0.0
01/08:30am 15.2 9.9 10.0 71 2.7 N 28 41 15 22 1020.3 1020.3 0.0
01/08:00am 14.1 10.1 10.3 78 2.0 N 22 32 12 17 1020.7 1020.8 0.0
01/07:30am 13.3 9.3 10.3 82 1.6 NNW 22 32 12 17 1020.6 1020.7 0.0
01/07:00am 12.8 9.1 10.3 85 1.3 NNW 20 28 11 15 1020.6 1020.7 0.0
01/06:30am 12.0 8.9 10.2 89 0.9 N 17 22 9 12 1020.6 1020.7 0.0
01/06:00am 11.9 8.7 10.1 89 0.9 N 17 20 9 11 1020.8 1020.9 0.0
01/05:30am 12.1 8.7 10.5 90 0.8 N 19 26 10 14 1020.9 1021.0 0.0
01/05:00am 11.9 8.7 10.1 89 0.9 N 17 19 9 10 1021.1 1021.2 0.0
01/04:30am 11.6 9.2 10.0 90 0.8 N 13 17 7 9 1021.3 1021.4 0.0
01/04:00am 9.3 7.2 8.1 92 0.6 NNE 9 11 5 6 1021.7 1021.8 0.0
01/03:30am 10.7 8.8 9.1 90 0.8 NNW 9 13 5 7 1022.1 1022.2 0.0
01/03:00am 11.4 9.2 9.5 88 1.0 NNW 11 15 6 8 1022.3 1022.4 0.0
01/02:30am 10.9 8.5 8.7 86 1.1 NW 11 15 6 8 1022.8 1022.9 0.0
01/02:08am 11.8 9.2 9.2 84 1.3 NNW 13 17 7 9 1023.1 1023.2 0.0
01/02:00am 11.8 8.8 9.2 84 1.3 N 15 17 8 9 1023.1 1023.2 0.0
01/01:42am 11.9 8.8 8.9 82 1.5 NNW 15 19 8 10 1023.4 1023.5 0.0
01/01:30am 11.6 9.0 9.2 85 1.2 NNW 13 17 7 9 1023.6 1023.7 0.0
01/01:25am 11.7 9.2 9.6 87 1.1 N 13 15 7 8 1023.6 1023.7 0.0
01/01:00am 6.7 5.0 6.0 95 0.3 N 4 7 2 4 1023.7 1023.8 0.0
01/12:30am 7.2 5.6 6.5 95 0.3 N 4 6 2 3 1024.2 1024.3 0.0
01/12:00am 7.3 6.5 6.4 94 0.4 CALM 0 0 0 0 1024.8 1024.9 0.0
 
Date/Time
EST
Temp
°C
App
Temp
°C
Dew
Point
°C
Rel
Hum
%
Delta-T
°C
Wind Press
QNH
hPa
Press
MSL
hPa
Rain since
9am
mm
Dir  Spd
km/h
Gust
km/h
Spd
kts
Gust
kts
31/11:30pm 8.4 7.8 7.6 95 0.4 CALM 0 0 0 0 1025.3 1025.4 0.0
31/11:00pm 8.2 7.6 7.4 95 0.4 CALM 0 0 0 0 1025.8 1025.9 0.0
31/10:30pm 8.5 7.9 7.6 94 0.4 CALM 0 0 0 0 1026.1 1026.2 0.0
31/10:00pm 8.4 7.1 7.5 94 0.4 N 4 6 2 3 1026.2 1026.3 0.0
31/09:30pm 9.4 8.6 8.2 92 0.6 N 2 7 1 4 1026.3 1026.4 0.0
31/09:00pm 9.1 8.6 7.7 91 0.7 CALM 0 0 0 0 1026.5 1026.6 0.0
31/08:30pm 9.7 9.2 7.8 88 0.9 CALM 0 0 0 0 1026.7 1026.8 0.0
31/08:00pm 10.2 9.8 8.3 88 0.9 CALM 0 0 0 0 1026.8 1026.9 0.0
31/07:30pm 10.0 9.5 7.8 86 1.1 CALM 0 0 0 0 1027.0 1027.1 0.0
31/07:00pm 10.8 10.4 8.2 84 1.3 CALM 0 0 0 0 1027.2 1027.3 0.0
31/06:30pm 11.5 11.1 8.4 81 1.5 CALM 0 0 0 0 1027.3 1027.4 0.0
31/06:00pm 12.9 11.5 8.8 76 2.0 SSW 6 7 3 4 1027.3 1027.4 0.0
31/05:30pm 13.6 11.7 8.9 73 2.4 SSW 9 11 5 6 1027.4 1027.5 0.0
31/05:00pm 13.9 11.9 8.5 70 2.7 S 9 11 5 6 1027.5 1027.6 0.0
31/04:30pm 14.4 12.4 8.8 69 2.8 SSW 9 13 5 7 1027.7 1027.8 0.0
31/04:00pm 14.9 13.1 9.5 70 2.8 SSW 9 13 5 7 1028.0 1028.1 0.0
31/03:30pm 14.4 12.1 9.0 70 2.7 SSW 11 13 6 7 1028.2 1028.3 0.0
31/03:00pm 14.0 11.7 9.0 72 2.5 SSW 11 13 6 7 1028.6 1028.7 0.0
31/02:30pm 13.8 11.1 8.8 72 2.5 SW 13 15 7 8 1029.1 1029.2 0.0
31/02:00pm 14.1 12.3 9.3 73 2.4 SSW 9 13 5 7 1029.5 1029.6 0.0
31/01:30pm 13.6 11.7 8.9 73 2.4 SSW 9 13 5 7 1030.1 1030.1 0.0
31/01:00pm 13.6 12.2 9.5 76 2.1 SW 7 11 4 6 1030.6 1030.6 0.0
31/12:30pm 13.0 11.1 8.9 76 2.1 SW 9 15 5 8 1031.2 1031.2 0.0
31/12:00pm 13.0 11.1 9.1 77 2.0 SSW 9 13 5 7 1031.7 1031.7 0.0
31/11:39am 12.5 11.0 8.6 77 1.9 S 6 15 3 8 1032.1 1032.1 0.0
31/11:30am 12.2 11.0 8.1 76 2.0 SSW 4 9 2 5 1032.2 1032.2 0.0
31/11:00am 11.7 9.6 8.4 80 1.6 WNW 9 13 5 7 1032.5 1032.5 0.0
31/10:30am 11.5 9.5 8.7 83 1.4 W 9 15 5 8 1032.7 1032.7 0.0
31/10:00am 11.0 8.5 8.2 83 1.4 WSW 11 13 6 7 1032.7 1032.7 0.0
31/09:30am 10.9 8.0 8.3 84 1.3 WSW 13 17 7 9 1032.8 1032.8 0.0
31/09:21am 10.8 8.0 8.4 85 1.2 WSW 13 15 7 8 1032.8 1032.8 0.0
31/09:00am 11.0 9.0 8.6 85 1.2 W 9 13 5 7 1032.7 1032.7 0.0
31/08:30am 10.9 8.9 8.7 86 1.1 W 9 13 5 7 1032.8 1032.8 0.0
31/08:00am 10.6 8.6 8.7 88 0.9 WNW 9 13 5 7 1032.7 1032.7 0.0
31/07:30am 10.5 8.9 8.8 89 0.8 W 7 11 4 6 1032.5 1032.5 0.0
31/07:00am 10.3 8.7 8.7 90 0.8 W 7 11 4 6 1032.4 1032.4 0.0
31/06:30am 10.4 8.8 8.8 90 0.8 WNW 7 9 4 5 1032.3 1032.3 0.0
31/06:00am 10.5 8.6 8.9 90 0.8 WNW 9 13 5 7 1032.2 1032.2 0.0
31/05:30am 10.6 7.9 9.0 90 0.8 WNW 13 15 7 8 1032.2 1032.2 0.0
31/05:12am 10.8 8.6 9.4 91 0.7 W 11 17 6 9 1032.1 1032.1 0.0
31/05:00am 10.8 8.2 9.4 91 0.7 WNW 13 17 7 9 1032.0 1032.0 0.0
31/04:30am 11.1 9.3 9.5 90 0.8 W 9 11 5 6 1032.1 1032.1 0.0
31/04:02am 11.4 9.3 9.7 89 0.9 W 11 15 6 8 1032.0 1032.0 0.0
31/04:00am 11.3 9.5 9.6 89 0.8 W 9 15 5 8 1032.0 1032.0 0.0
31/03:30am 11.7 11.6 9.6 87 1.1 CALM 0 0 0 0 1032.2 1032.2 0.0
31/03:00am 11.8 11.8 9.7 87 1.1 CALM 0 0 0 0 1032.4 1032.4 0.0
31/02:30am 11.6 10.4 9.7 88 1.0 NNW 6 6 3 3 1032.5 1032.5 0.0
31/02:00am 11.7 10.6 9.8 88 1.0 NNW 6 6 3 3 1032.7 1032.7 0.0
31/01:30am 11.7 11.7 9.8 88 1.0 CALM 0 0 0 0 1032.7 1032.7 0.0
31/01:00am 11.6 11.6 9.9 89 0.9 CALM 0 0 0 0 1032.7 1032.7 0.0
31/12:30am 11.8 10.7 9.9 88 1.0 E 6 7 3 4 1032.7 1032.7 0.0

Latest Capital City Observations: Canberra | Sydney | Melbourne | Brisbane | Adelaide | Perth | Hobart | Darwin

Other formats

Comma delimited format used in spreadsheet applications
http://www.bom.gov.au/fwo/IDV60901/IDV60901.94870.axf

JavaScript Object Notation format (JSON) in row-major order
http://www.bom.gov.au/fwo/IDV60901/IDV60901.94870.json

Data quality

Most of these data are generated automatically and are frequently updated. Quality checks on data are not normally performed. It is possible for incorrect values to appear. Refer to information at About Latest Weather Observations and please check the disclaimer before using these data.